X  Close Metar Aviation Weather Data     KHVN Tweed New Haven Airport
Temperature
68°F Temperature
64°F Dewpoint
88% Humidity



Wind
3 MPH
5 KM/H
1 M/S
3 KTS



190°
South
Current Conditions

Overcast Overcast
Pressure 1024.02 (hPa) - 30.24 (inHg)
Visibility 9.9 (mile) - 16 (km)
Airport
Airport-code KHVN

Location Tweed New Haven Airport 5 (mi)

Metar:
KHVN 212353Z 19003KT 10SM OVC007 20/18 A3024 RMK AO2 SLP238 T02000183 10217 20200 53006

Time: 10-21-2020 19:53 EDT